createdAt,value
2023-02-04T00:02:00.261Z,8.79
2023-02-04T00:04:26.827Z,8.82
2023-02-04T00:06:53.401Z,8.87
2023-02-04T00:09:19.956Z,8.87
2023-02-04T00:11:46.560Z,8.86
2023-02-04T00:14:13.063Z,8.87
2023-02-04T00:16:39.696Z,8.88
2023-02-04T00:19:06.275Z,8.87
2023-02-04T00:21:32.812Z,8.89
2023-02-04T00:23:59.351Z,8.79
2023-02-04T00:26:25.922Z,8.69
2023-02-04T00:28:52.432Z,8.71
2023-02-04T00:31:19.000Z,8.74
2023-02-04T00:33:45.589Z,8.80
2023-02-04T00:36:12.107Z,8.85
2023-02-04T00:38:38.660Z,8.81
2023-02-04T00:41:06.654Z,8.81
2023-02-04T00:43:33.197Z,8.80
2023-02-04T00:45:59.793Z,8.83
2023-02-04T00:48:26.914Z,8.85
2023-02-04T00:50:54.169Z,8.89
2023-02-04T00:53:20.743Z,8.89
2023-02-04T00:55:47.299Z,8.91
2023-02-04T00:58:13.898Z,8.90
2023-02-04T01:00:40.554Z,8.87
2023-02-04T01:03:07.217Z,8.88
2023-02-04T01:05:33.820Z,8.91
2023-02-04T01:08:00.342Z,8.93
2023-02-04T01:10:28.603Z,8.97
2023-02-04T01:12:55.645Z,8.96
2023-02-04T01:15:25.590Z,8.99
2023-02-04T01:17:52.212Z,9.00
2023-02-04T01:20:18.816Z,8.99
2023-02-04T01:22:45.331Z,9.08
2023-02-04T01:25:11.900Z,9.12
2023-02-04T01:27:38.504Z,9.13
2023-02-04T01:30:05.952Z,9.12
2023-02-04T01:32:32.546Z,9.14
2023-02-04T01:34:59.104Z,9.16
2023-02-04T01:37:25.713Z,9.17
2023-02-04T01:39:52.311Z,9.16
2023-02-04T01:42:19.111Z,9.18
2023-02-04T01:44:45.938Z,9.18
2023-02-04T01:47:12.579Z,9.13
2023-02-04T01:49:39.495Z,9.14
2023-02-04T01:52:06.109Z,9.12
2023-02-04T01:54:32.734Z,9.14
2023-02-04T01:56:59.421Z,9.15
2023-02-04T01:59:26.719Z,9.13
2023-02-04T02:01:53.714Z,9.09
2023-02-04T02:04:24.960Z,9.11
2023-02-04T02:06:53.905Z,9.09
2023-02-04T02:09:20.585Z,9.10
2023-02-04T02:11:47.538Z,9.08
2023-02-04T02:14:14.114Z,9.09
2023-02-04T02:16:40.883Z,9.08
2023-02-04T02:19:09.071Z,9.06
2023-02-04T02:21:39.544Z,9.07
2023-02-04T02:24:24.053Z,9.09
2023-02-04T02:26:50.580Z,9.06
2023-02-04T02:29:17.096Z,9.02
2023-02-04T02:31:43.873Z,9.10
2023-02-04T02:34:10.673Z,9.07
2023-02-04T02:36:37.200Z,9.12
2023-02-04T02:39:03.880Z,9.15
2023-02-04T02:41:30.678Z,9.16
2023-02-04T02:43:57.316Z,9.08
2023-02-04T02:46:23.959Z,9.06
2023-02-04T02:48:50.552Z,9.19
2023-02-04T02:51:17.086Z,9.17
2023-02-04T02:53:44.007Z,9.22
2023-02-04T02:56:10.658Z,9.18
2023-02-04T02:58:37.276Z,9.25
2023-02-04T03:01:08.837Z,9.25
2023-02-04T03:03:53.684Z,9.24
2023-02-04T03:06:22.531Z,9.25
2023-02-04T03:08:51.253Z,9.25
2023-02-04T03:11:17.775Z,9.28
2023-02-04T03:13:44.682Z,9.29
2023-02-04T03:16:11.333Z,9.24
2023-02-04T03:18:38.233Z,9.30
2023-02-04T03:21:05.933Z,9.32
2023-02-04T03:23:33.813Z,9.24
2023-02-04T03:26:00.955Z,9.28
2023-02-04T03:28:27.702Z,9.30
2023-02-04T03:30:56.247Z,9.41
2023-02-04T03:33:29.104Z,9.41
2023-02-04T03:35:55.628Z,9.37
2023-02-04T03:38:22.168Z,9.37
2023-02-04T03:40:48.738Z,9.33
2023-02-04T03:43:15.306Z,9.36
2023-02-04T03:45:45.711Z,9.42
2023-02-04T03:48:12.590Z,9.38
2023-02-04T03:50:39.122Z,9.38
2023-02-04T03:53:05.679Z,9.37
2023-02-04T03:55:33.139Z,9.34
2023-02-04T03:57:59.689Z,9.32
2023-02-04T04:00:26.250Z,9.31
2023-02-04T04:02:52.950Z,9.34
2023-02-04T04:05:19.531Z,9.30
2023-02-04T04:07:46.049Z,9.32
2023-02-04T04:10:12.625Z,9.32
2023-02-04T04:12:39.186Z,9.34
2023-02-04T04:15:06.116Z,9.32
2023-02-04T04:17:32.781Z,9.27
2023-02-04T04:19:59.300Z,9.29
2023-02-04T04:22:25.903Z,9.34
2023-02-04T04:24:52.446Z,9.29
2023-02-04T04:27:19.076Z,9.31
2023-02-04T04:29:45.573Z,9.34
2023-02-04T04:32:12.140Z,9.32
2023-02-04T04:34:38.736Z,9.34
2023-02-04T04:37:05.369Z,9.31
2023-02-04T04:39:32.139Z,9.28
2023-02-04T04:41:58.681Z,9.30
2023-02-04T04:44:25.306Z,9.30
2023-02-04T04:46:51.904Z,9.34
2023-02-04T04:49:18.455Z,9.36
2023-02-04T04:51:44.980Z,9.37
2023-02-04T04:54:11.632Z,9.33
2023-02-04T04:56:38.148Z,9.30
2023-02-04T04:59:04.688Z,9.31
2023-02-04T05:01:31.261Z,9.27
2023-02-04T05:03:57.807Z,9.26
2023-02-04T05:06:25.534Z,9.26
2023-02-04T05:08:52.460Z,9.25
2023-02-04T05:11:19.025Z,9.27
2023-02-04T05:13:45.694Z,9.31
2023-02-04T05:16:12.776Z,9.29
2023-02-04T05:18:40.269Z,9.32
2023-02-04T05:21:06.923Z,9.30
2023-02-04T05:23:33.911Z,9.24
2023-02-04T05:26:00.609Z,9.29
2023-02-04T05:28:27.420Z,9.30
2023-02-04T05:30:54.085Z,9.26
2023-02-04T05:33:20.630Z,9.29
2023-02-04T05:35:49.059Z,9.29
2023-02-04T05:38:16.345Z,9.32
2023-02-04T05:40:42.874Z,9.33
2023-02-04T05:43:09.428Z,9.31
2023-02-04T05:45:35.980Z,9.30
2023-02-04T05:48:02.543Z,9.26
2023-02-04T05:50:29.038Z,9.26
2023-02-04T05:52:56.559Z,9.26
2023-02-04T05:55:23.066Z,9.25
2023-02-04T05:57:49.578Z,9.25
2023-02-04T06:00:16.157Z,9.26
2023-02-04T06:02:42.698Z,9.27
2023-02-04T06:05:09.301Z,9.24
2023-02-04T06:07:35.843Z,9.23
2023-02-04T06:10:02.401Z,9.21
2023-02-04T06:12:28.943Z,9.24
2023-02-04T06:14:56.133Z,9.23
2023-02-04T06:17:22.700Z,9.16
2023-02-04T06:19:49.225Z,9.24
2023-02-04T06:22:15.790Z,9.23
2023-02-04T06:24:42.315Z,9.28
2023-02-04T06:27:08.879Z,9.32
2023-02-04T06:29:35.544Z,9.31
2023-02-04T06:32:02.087Z,9.32
2023-02-04T06:34:28.804Z,9.35
2023-02-04T06:36:55.480Z,9.32
2023-02-04T06:39:21.986Z,9.36
2023-02-04T06:41:48.492Z,9.36
2023-02-04T06:44:15.042Z,9.31
2023-02-04T06:46:41.594Z,9.29
2023-02-04T06:49:08.124Z,9.34
2023-02-04T06:51:34.660Z,9.28
2023-02-04T06:54:01.183Z,9.35
2023-02-04T06:56:29.450Z,9.29
2023-02-04T06:58:56.061Z,9.38
2023-02-04T07:01:22.634Z,9.32
2023-02-04T07:03:49.197Z,9.34
2023-02-04T07:06:15.775Z,9.41
2023-02-04T07:08:42.449Z,9.43
2023-02-04T07:11:09.096Z,9.43
2023-02-04T07:13:35.704Z,9.38
2023-02-04T07:16:02.449Z,9.37
2023-02-04T07:18:29.065Z,9.43
2023-02-04T07:20:55.683Z,9.44
2023-02-04T07:23:22.175Z,9.43
2023-02-04T07:25:49.237Z,9.44
2023-02-04T07:28:15.930Z,9.45
2023-02-04T07:30:42.568Z,9.41
2023-02-04T07:33:09.121Z,9.36
2023-02-04T07:35:35.796Z,9.39
2023-02-04T07:38:02.319Z,9.42
2023-02-04T07:40:29.030Z,9.34
2023-02-04T07:42:55.675Z,9.32
2023-02-04T07:45:22.324Z,9.30
2023-02-04T07:47:48.844Z,9.28
2023-02-04T07:50:16.228Z,9.21
2023-02-04T07:52:42.778Z,9.22
2023-02-04T07:55:09.635Z,9.20
2023-02-04T07:57:36.308Z,9.26
2023-02-04T08:00:03.030Z,9.15
2023-02-04T08:02:29.624Z,9.16
2023-02-04T08:04:56.218Z,9.09
2023-02-04T08:07:22.713Z,9.17
2023-02-04T08:09:49.245Z,9.18
2023-02-04T08:12:15.945Z,9.16
2023-02-04T08:14:42.518Z,9.12
2023-02-04T08:17:09.093Z,9.12
2023-02-04T08:19:35.626Z,9.07
2023-02-04T08:22:02.163Z,9.15
2023-02-04T08:24:28.737Z,9.23
2023-02-04T08:26:55.274Z,9.19
2023-02-04T08:29:21.855Z,9.13
2023-02-04T08:31:48.524Z,9.17
2023-02-04T08:34:15.116Z,9.09
2023-02-04T08:36:41.727Z,9.14
2023-02-04T08:39:08.348Z,9.24
2023-02-04T08:41:34.866Z,9.22
2023-02-04T08:44:01.612Z,9.31
2023-02-04T08:46:28.358Z,9.27
2023-02-04T08:48:54.943Z,9.33
2023-02-04T08:51:21.534Z,9.36
2023-02-04T08:53:48.197Z,9.42
2023-02-04T08:56:20.571Z,9.35
2023-02-04T08:58:48.311Z,9.32
2023-02-04T09:01:15.315Z,9.41
2023-02-04T09:03:42.047Z,9.45
2023-02-04T09:06:08.983Z,9.47
2023-02-04T09:08:35.567Z,9.45
2023-02-04T09:11:02.217Z,9.43
2023-02-04T09:13:28.899Z,9.34
2023-02-04T09:15:55.470Z,9.42
2023-02-04T09:18:22.796Z,9.37
2023-02-04T09:20:49.742Z,9.39
2023-02-04T09:23:16.495Z,9.51
2023-02-04T09:25:43.836Z,9.45
2023-02-04T09:28:11.725Z,9.53
2023-02-04T09:30:38.756Z,9.59
2023-02-04T09:33:05.353Z,9.61
2023-02-04T09:35:31.958Z,9.69
2023-02-04T09:37:58.504Z,9.61
2023-02-04T09:40:27.284Z,9.71
2023-02-04T09:42:54.595Z,9.73
2023-02-04T09:45:26.838Z,9.69
2023-02-04T09:47:53.875Z,9.85
2023-02-04T09:50:21.981Z,9.91
2023-02-04T09:52:49.575Z,9.83
2023-02-04T09:55:17.800Z,9.92
2023-02-04T09:57:44.557Z,9.81
2023-02-04T10:00:17.541Z,9.93
2023-02-04T10:02:44.534Z,10.00
2023-02-04T10:05:31.406Z,10.11
2023-02-04T10:07:58.956Z,10.05
2023-02-04T10:10:27.434Z,9.92
2023-02-04T10:12:56.272Z,10.09
2023-02-04T10:15:23.325Z,10.01
2023-02-04T10:17:52.033Z,9.95
2023-02-04T10:20:20.952Z,10.03
2023-02-04T10:22:50.076Z,9.99
2023-02-04T10:25:18.284Z,10.18
2023-02-04T10:27:52.539Z,10.17
2023-02-04T10:30:23.774Z,10.10
2023-02-04T10:32:50.400Z,10.05
2023-02-04T10:35:17.775Z,10.19
2023-02-04T10:37:44.670Z,10.17
2023-02-04T10:40:31.218Z,10.20
2023-02-04T10:42:58.323Z,10.32
2023-02-04T10:45:29.505Z,10.33
2023-02-04T10:47:56.829Z,10.26
2023-02-04T10:50:25.144Z,10.35
2023-02-04T10:52:55.487Z,10.21
2023-02-04T10:55:23.737Z,10.56
2023-02-04T10:57:52.114Z,10.66
2023-02-04T11:00:25.454Z,10.78
2023-02-04T11:03:04.030Z,10.64
2023-02-04T11:05:31.955Z,10.60
2023-02-04T11:07:58.734Z,10.63
2023-02-04T11:10:28.868Z,10.66
2023-02-04T11:12:55.392Z,10.56
2023-02-04T11:15:40.215Z,10.44
2023-02-04T11:18:09.234Z,10.46
2023-02-04T11:20:39.862Z,10.28
2023-02-04T11:23:24.807Z,10.37
2023-02-04T11:26:01.650Z,10.46
2023-02-04T11:28:28.218Z,10.34
2023-02-04T11:31:12.989Z,10.23
2023-02-04T11:33:41.574Z,10.39
2023-02-04T11:36:09.736Z,10.52
2023-02-04T11:38:36.313Z,10.37
2023-02-04T11:41:03.317Z,10.34
2023-02-04T11:43:33.329Z,10.20
2023-02-04T11:46:04.839Z,10.25
2023-02-04T11:48:31.986Z,10.28
2023-02-04T11:50:59.994Z,10.18
2023-02-04T11:53:31.153Z,9.91
2023-02-04T11:55:58.077Z,10.01
2023-02-04T11:58:26.251Z,10.13
2023-02-04T12:00:53.056Z,10.04
2023-02-04T12:03:22.458Z,10.18
2023-02-04T12:05:49.832Z,10.07
2023-02-04T12:08:22.688Z,10.10
2023-02-04T12:11:11.365Z,10.07
2023-02-04T12:13:48.360Z,10.07
2023-02-04T12:16:14.965Z,10.10
2023-02-04T12:18:41.564Z,10.11
2023-02-04T12:21:08.206Z,10.00
2023-02-04T12:23:34.862Z,9.99
2023-02-04T12:26:01.480Z,9.98
2023-02-04T12:28:29.126Z,9.78
2023-02-04T12:30:56.057Z,9.67
2023-02-04T12:33:22.947Z,9.64
2023-02-04T12:35:49.651Z,9.65
2023-02-04T12:38:16.267Z,9.79
2023-02-04T12:40:42.864Z,9.85
2023-02-04T12:43:09.514Z,9.72
2023-02-04T12:45:36.140Z,9.81
2023-02-04T12:48:02.890Z,9.77
2023-02-04T12:50:29.668Z,9.53
2023-02-04T12:52:57.688Z,9.63
2023-02-04T12:55:25.653Z,9.60
2023-02-04T12:57:52.673Z,9.77
2023-02-04T13:00:20.746Z,9.62
2023-02-04T13:02:47.760Z,9.74
2023-02-04T13:05:14.744Z,9.88
2023-02-04T13:07:41.652Z,9.81
2023-02-04T13:10:11.856Z,9.72
2023-02-04T13:12:38.459Z,9.96
2023-02-04T13:15:05.918Z,9.87
2023-02-04T13:17:32.457Z,9.91
2023-02-04T13:19:59.147Z,9.80
2023-02-04T13:22:25.752Z,9.85
2023-02-04T13:24:52.422Z,9.80
2023-02-04T13:27:19.032Z,9.81
2023-02-04T13:29:45.575Z,9.65
2023-02-04T13:32:12.162Z,9.65
2023-02-04T13:34:38.719Z,9.57
2023-02-04T13:37:05.306Z,9.61
2023-02-04T13:39:31.940Z,9.75
2023-02-04T13:41:58.522Z,9.67
2023-02-04T13:44:25.135Z,9.74
2023-02-04T13:46:52.194Z,9.65
2023-02-04T13:49:19.156Z,9.70
2023-02-04T13:51:45.770Z,9.50
2023-02-04T13:54:12.572Z,9.54
2023-02-04T13:56:39.645Z,9.64
2023-02-04T13:59:06.155Z,9.60
2023-02-04T14:01:33.145Z,9.69
2023-02-04T14:03:59.735Z,9.69
2023-02-04T14:06:33.428Z,9.67
2023-02-04T14:09:01.164Z,9.74
2023-02-04T14:11:27.806Z,9.76
2023-02-04T14:13:54.421Z,9.80
2023-02-04T14:16:21.101Z,9.91
2023-02-04T14:18:48.098Z,9.81
2023-02-04T14:21:14.714Z,9.89
2023-02-04T14:23:42.326Z,9.88
2023-02-04T14:26:09.593Z,9.89
2023-02-04T14:28:36.428Z,9.89
2023-02-04T14:31:03.294Z,10.02
2023-02-04T14:33:30.112Z,9.91
2023-02-04T14:35:56.680Z,9.93
2023-02-04T14:38:23.271Z,9.91
2023-02-04T14:40:49.865Z,9.99
2023-02-04T14:43:16.459Z,10.05
2023-02-04T14:45:43.323Z,10.12
2023-02-04T14:48:09.943Z,9.93
2023-02-04T14:50:36.542Z,9.97
2023-02-04T14:53:03.234Z,9.92
2023-02-04T14:55:29.817Z,9.93
2023-02-04T14:57:56.470Z,9.96
2023-02-04T15:00:23.164Z,10.08
2023-02-04T15:02:50.038Z,10.02
2023-02-04T15:05:16.846Z,9.93
2023-02-04T15:07:43.503Z,9.89
2023-02-04T15:10:12.862Z,9.91
2023-02-04T15:12:40.862Z,9.94
2023-02-04T15:15:07.669Z,9.96
2023-02-04T15:17:34.200Z,9.92
2023-02-04T15:20:00.801Z,9.93
2023-02-04T15:22:27.394Z,9.99
2023-02-04T15:24:53.927Z,10.01
2023-02-04T15:27:20.534Z,9.86
2023-02-04T15:29:47.104Z,9.69
2023-02-04T15:32:13.800Z,9.86
2023-02-04T15:34:40.932Z,9.79
2023-02-04T15:37:08.011Z,9.79
2023-02-04T15:39:34.572Z,10.02
2023-02-04T15:42:01.283Z,10.11
2023-02-04T15:44:27.945Z,10.07
2023-02-04T15:46:54.704Z,10.08
2023-02-04T15:49:21.955Z,10.12
2023-02-04T15:51:48.645Z,10.03
2023-02-04T15:54:15.368Z,10.13
2023-02-04T15:56:43.171Z,10.10
2023-02-04T15:59:11.558Z,10.13
2023-02-04T16:01:38.224Z,10.13
2023-02-04T16:04:04.890Z,10.17
2023-02-04T16:06:31.697Z,10.15
2023-02-04T16:08:58.315Z,10.06
2023-02-04T16:11:25.029Z,10.21
2023-02-04T16:13:52.078Z,10.16
2023-02-04T16:16:19.006Z,10.20
2023-02-04T16:18:45.692Z,10.30
2023-02-04T16:21:12.475Z,10.36
2023-02-04T16:23:39.092Z,10.31
2023-02-04T16:26:05.828Z,10.36
2023-02-04T16:28:32.943Z,10.33
2023-02-04T16:30:59.726Z,10.13
2023-02-04T16:33:28.070Z,9.68
2023-02-04T16:35:59.712Z,9.06
2023-02-04T16:38:26.664Z,9.01
2023-02-04T16:40:54.706Z,8.85
2023-02-04T16:43:22.170Z,8.73
2023-02-04T16:45:49.022Z,8.66
2023-02-04T16:48:15.716Z,8.73
2023-02-04T16:50:42.309Z,8.57
2023-02-04T16:53:15.055Z,8.58
2023-02-04T16:55:45.321Z,8.55
2023-02-04T16:58:12.990Z,8.36
2023-02-04T17:00:42.211Z,8.30
2023-02-04T17:03:10.174Z,8.09
2023-02-04T17:05:37.633Z,8.30
2023-02-04T17:08:04.597Z,8.15
2023-02-04T17:10:49.715Z,8.19
2023-02-04T17:13:16.340Z,8.18
2023-02-04T17:15:43.105Z,7.76
2023-02-04T17:18:09.944Z,7.85
2023-02-04T17:20:36.698Z,7.85
2023-02-04T17:23:03.514Z,7.86
2023-02-04T17:25:30.786Z,7.96
2023-02-04T17:27:58.139Z,8.02
2023-02-04T17:30:25.075Z,8.01
2023-02-04T17:32:51.663Z,7.93
2023-02-04T17:35:18.293Z,7.94
2023-02-04T17:37:44.969Z,7.80
2023-02-04T17:40:14.780Z,7.89
2023-02-04T17:42:41.473Z,7.90
2023-02-04T17:47:51.019Z,7.46
2023-02-04T17:50:20.119Z,7.19
2023-02-04T17:52:46.832Z,6.85
2023-02-04T17:55:19.169Z,6.80
2023-02-04T17:57:45.696Z,6.71
2023-02-04T18:00:17.150Z,6.65
2023-02-04T18:02:45.566Z,6.51
2023-02-04T18:05:17.394Z,6.64
2023-02-04T18:07:47.340Z,6.53
2023-02-04T18:10:22.207Z,6.40
2023-02-04T18:12:49.003Z,6.45
2023-02-04T18:15:26.801Z,6.61
2023-02-04T18:17:57.397Z,6.63
2023-02-04T18:20:24.435Z,6.37
2023-02-04T18:22:55.374Z,6.26
2023-02-04T18:25:22.036Z,6.16
2023-02-04T18:27:48.657Z,6.05
2023-02-04T18:30:20.029Z,6.15
2023-02-04T18:32:46.769Z,6.04
2023-02-04T18:35:31.672Z,6.04
2023-02-04T18:37:58.395Z,5.88
2023-02-04T18:40:27.670Z,5.86
2023-02-04T18:43:12.976Z,5.97
2023-02-04T18:45:40.708Z,5.77
2023-02-04T18:48:19.700Z,5.86
2023-02-04T18:50:47.144Z,5.90
2023-02-04T18:53:13.772Z,5.88
2023-02-04T18:55:59.249Z,5.82
2023-02-04T18:58:34.106Z,5.91
2023-02-04T19:01:03.648Z,5.92
2023-02-04T19:03:32.174Z,5.94
2023-02-04T19:05:59.890Z,5.86
2023-02-04T19:08:35.670Z,5.78
2023-02-04T19:11:02.304Z,5.78
2023-02-04T19:13:34.966Z,5.85
2023-02-04T19:16:14.522Z,5.81
2023-02-04T19:18:44.446Z,5.89
2023-02-04T19:21:13.985Z,5.90
2023-02-04T19:23:40.591Z,5.89
2023-02-04T19:26:22.557Z,5.82
2023-02-04T19:28:51.375Z,5.85
2023-02-04T19:31:18.012Z,5.81
2023-02-04T19:33:45.506Z,5.80
2023-02-04T19:36:30.917Z,5.53
2023-02-04T19:39:17.389Z,5.60
2023-02-04T19:41:49.254Z,5.48
2023-02-04T19:44:34.827Z,5.50
2023-02-04T19:47:17.727Z,5.37
2023-02-04T19:49:44.453Z,5.25
2023-02-04T19:52:40.168Z,5.38
2023-02-04T19:55:29.986Z,5.35
2023-02-04T19:58:01.684Z,5.26
2023-02-04T20:00:34.201Z,5.29
2023-02-04T20:03:01.533Z,5.23
2023-02-04T20:05:31.844Z,5.11
2023-02-04T20:08:22.645Z,5.06
2023-02-04T20:10:49.232Z,4.93
2023-02-04T20:13:19.217Z,4.90
2023-02-04T20:15:45.817Z,5.08
2023-02-04T20:18:17.133Z,5.13
2023-02-04T20:20:45.421Z,5.10
2023-02-04T20:23:30.810Z,5.03
2023-02-04T20:25:57.529Z,5.08
2023-02-04T20:28:30.173Z,5.12
2023-02-04T20:30:58.412Z,5.00
2023-02-04T20:33:25.346Z,4.99
2023-02-04T20:35:51.880Z,4.97
2023-02-04T20:38:19.568Z,4.92
2023-02-04T20:40:46.972Z,4.87
2023-02-04T20:43:16.533Z,4.92
2023-02-04T20:45:48.050Z,4.91
2023-02-04T20:48:17.666Z,4.85
2023-02-04T20:50:48.378Z,4.81
2023-02-04T20:53:14.910Z,4.85
2023-02-04T20:55:46.437Z,4.74
2023-02-04T20:58:16.050Z,4.75
2023-02-04T21:00:43.189Z,4.72
2023-02-04T21:03:15.728Z,4.82
2023-02-04T21:05:42.380Z,4.86
2023-02-04T21:08:20.923Z,4.77
2023-02-04T21:10:47.986Z,4.84
2023-02-04T21:13:14.543Z,4.69
2023-02-04T21:15:41.113Z,4.57
2023-02-04T21:18:08.068Z,4.64
2023-02-04T21:20:34.753Z,4.72
2023-02-04T21:23:01.394Z,4.65
2023-02-04T21:25:28.024Z,4.69
2023-02-04T21:27:54.965Z,4.81
2023-02-04T21:30:24.084Z,4.83
2023-02-04T21:32:50.658Z,4.77
2023-02-04T21:35:24.494Z,4.73
2023-02-04T21:37:51.891Z,4.70
2023-02-04T21:40:21.847Z,4.72
2023-02-04T21:42:49.079Z,4.74
2023-02-04T21:45:19.281Z,4.72
2023-02-04T21:47:46.429Z,4.68
2023-02-04T21:50:16.378Z,4.65
2023-02-04T21:52:43.030Z,4.64
2023-02-04T21:55:10.451Z,4.60
2023-02-04T21:57:37.373Z,4.51
2023-02-04T22:00:05.045Z,4.54
2023-02-04T22:02:31.645Z,4.55
2023-02-04T22:04:58.182Z,4.48
2023-02-04T22:07:24.770Z,4.54
2023-02-04T22:09:51.397Z,4.46
2023-02-04T22:12:18.223Z,4.55
2023-02-04T22:14:45.108Z,4.48
2023-02-04T22:17:11.972Z,4.48
2023-02-04T22:19:38.509Z,4.45
2023-02-04T22:22:05.187Z,4.40
2023-02-04T22:24:31.718Z,4.29
2023-02-04T22:26:59.418Z,4.23
2023-02-04T22:29:30.046Z,4.24
2023-02-04T22:31:56.601Z,4.24
2023-02-04T22:34:23.472Z,4.27
2023-02-04T22:36:50.056Z,4.24
2023-02-04T22:39:16.611Z,4.27
2023-02-04T22:41:43.200Z,4.23
2023-02-04T22:44:09.798Z,4.28
2023-02-04T22:46:36.406Z,4.28
2023-02-04T22:49:02.983Z,4.36
2023-02-04T22:51:30.243Z,4.33
2023-02-04T22:54:00.224Z,4.33
2023-02-04T22:56:27.281Z,4.29
2023-02-04T22:58:56.875Z,4.22
2023-02-04T23:01:23.416Z,4.18
2023-02-04T23:03:50.024Z,4.19
2023-02-04T23:06:16.597Z,4.20
2023-02-04T23:08:43.192Z,4.18
2023-02-04T23:11:09.791Z,4.21
2023-02-04T23:13:36.590Z,4.29
2023-02-04T23:16:03.172Z,4.32
2023-02-04T23:18:29.733Z,4.19
2023-02-04T23:20:56.337Z,4.39
2023-02-04T23:23:22.989Z,4.44
2023-02-04T23:25:49.858Z,4.42
2023-02-04T23:28:16.888Z,4.43
2023-02-04T23:30:43.522Z,4.48
2023-02-04T23:33:10.978Z,4.44
2023-02-04T23:35:37.656Z,4.45
2023-02-04T23:38:04.175Z,4.44
2023-02-04T23:40:30.726Z,4.45
2023-02-04T23:42:57.290Z,4.41
2023-02-04T23:45:23.820Z,4.36
2023-02-04T23:47:50.338Z,4.45
2023-02-04T23:50:17.091Z,4.35
2023-02-04T23:52:43.679Z,4.37
2023-02-04T23:55:10.250Z,4.36
2023-02-04T23:57:36.785Z,4.35
